Time;durP1;ratioP1;P1;durP2;ratioP2;P2;SDS_P1;SDS_P2;PMS_P1;PMS_P2;Temp;Humidity;BMP_temperature;BMP_pressure;BME280_temperature;BME280_humidity;BME280_pressure;Samples;Min_cycle;Max_cycle;Signal;HPM_P1;HPM_P2
2022/11/21 00:00:46;;;;;;;6.13;1.60;;;;;;;6.29;100.00;97826.69;5119452;27;20268;-80
2022/11/21 00:03:15;;;;;;;6.13;1.67;;;;;;;6.21;100.00;97829.84;5118025;27;20199;-80
2022/11/21 00:05:47;;;;;;;5.53;1.67;;;;;;;6.25;100.00;97822.56;5116881;28;20244;-80
2022/11/21 00:08:19;;;;;;;9.00;1.87;;;;;;;6.23;100.00;97841.09;5114452;28;20226;-80
2022/11/21 00:10:48;;;;;;;5.00;1.50;;;;;;;6.27;100.00;97836.44;5114592;27;20211;-80
2022/11/21 00:13:18;;;;;;;7.20;1.67;;;;;;;6.23;100.00;97827.94;5113093;28;20656;-80
2022/11/21 00:15:47;;;;;;;5.37;1.43;;;;;;;6.15;100.00;97826.78;5116698;28;20187;-81
2022/11/21 00:18:15;;;;;;;5.87;1.70;;;;;;;6.18;100.00;97839.72;5112755;28;20214;-80
2022/11/21 00:20:45;;;;;;;6.20;2.13;;;;;;;6.07;100.00;97831.69;5116372;28;20195;-80
2022/11/21 00:23:14;;;;;;;11.27;2.53;;;;;;;6.01;100.00;97843.47;5116474;28;20191;-80
2022/11/21 00:25:44;;;;;;;5.37;1.67;;;;;;;6.13;100.00;97850.53;5115560;28;20191;-80
2022/11/21 00:28:12;;;;;;;6.10;1.60;;;;;;;6.12;100.00;97830.47;5111041;28;20215;-80
2022/11/21 00:30:40;;;;;;;6.83;1.47;;;;;;;6.14;100.00;97833.81;5111618;28;20246;-80
2022/11/21 00:33:09;;;;;;;4.63;1.67;;;;;;;6.08;100.00;97844.75;5112345;28;20191;-80
2022/11/21 00:35:37;;;;;;;8.77;1.90;;;;;;;6.10;100.00;97836.78;5110335;28;20240;-80
2022/11/21 00:38:06;;;;;;;6.47;1.60;;;;;;;6.18;100.00;97835.31;5111776;28;20232;-80
2022/11/21 00:40:35;;;;;;;5.93;1.70;;;;;;;6.23;100.00;97843.72;5112259;28;20199;-80
2022/11/21 00:43:05;;;;;;;5.30;1.50;;;;;;;6.11;100.00;97828.78;5114876;28;20691;-80
2022/11/21 00:45:34;;;;;;;8.63;2.23;;;;;;;6.06;100.00;97841.38;5114003;28;20257;-80
2022/11/21 00:48:02;;;;;;;5.53;1.77;;;;;;;6.04;100.00;97822.25;5117911;27;20272;-80
2022/11/21 00:50:31;;;;;;;9.03;2.00;;;;;;;6.06;100.00;97824.75;5114639;28;20203;-80
2022/11/21 00:52:59;;;;;;;7.17;2.07;;;;;;;5.98;100.00;97820.00;5109991;28;20203;-80
2022/11/21 00:55:28;;;;;;;5.03;1.63;;;;;;;6.09;100.00;97822.78;5115012;28;20191;-80
2022/11/21 00:57:56;;;;;;;9.17;1.83;;;;;;;6.04;100.00;97824.88;5109369;28;20195;-80
2022/11/21 01:00:26;;;;;;;4.37;1.77;;;;;;;6.09;100.00;97808.81;5111613;28;20232;-80
2022/11/21 01:02:55;;;;;;;7.50;1.93;;;;;;;6.05;100.00;97825.72;5112889;28;20199;-81
2022/11/21 01:05:24;;;;;;;9.60;2.30;;;;;;;5.94;100.00;97823.81;5109718;28;20244;-79
2022/11/21 01:07:52;;;;;;;7.43;1.97;;;;;;;5.95;100.00;97825.47;5111095;28;20219;-80
2022/11/21 01:10:21;;;;;;;7.47;2.20;;;;;;;5.90;100.00;97817.94;5111021;28;20199;-80
2022/11/21 01:12:49;;;;;;;6.57;2.30;;;;;;;5.92;100.00;97823.06;5109919;28;20199;-80
2022/11/21 01:15:18;;;;;;;7.87;1.67;;;;;;;6.10;100.00;97821.84;5098802;28;20256;-80
2022/11/21 01:17:48;;;;;;;3.77;1.47;;;;;;;6.10;100.00;97818.38;5114415;28;20195;-80
2022/11/21 01:20:16;;;;;;;8.53;1.90;;;;;;;6.08;100.00;97829.00;5113035;28;20684;-80
2022/11/21 01:22:46;;;;;;;6.77;2.07;;;;;;;6.12;100.00;97819.09;5109688;28;20191;-80
2022/11/21 01:25:15;;;;;;;4.23;1.70;;;;;;;6.09;100.00;97835.94;5089128;28;20261;-80
2022/11/21 01:27:43;;;;;;;6.03;1.40;;;;;;;6.06;100.00;97827.38;5110574;28;20211;-80
2022/11/21 01:30:13;;;;;;;5.43;1.90;;;;;;;6.01;100.00;97825.09;5114937;28;20195;-80
2022/11/21 01:32:42;;;;;;;4.13;1.70;;;;;;;6.05;100.00;97831.81;5114996;28;20183;-80
2022/11/21 01:35:11;;;;;;;8.57;1.70;;;;;;;6.12;100.00;97840.13;5113569;28;20202;-80
2022/11/21 01:37:40;;;;;;;8.03;1.90;;;;;;;6.00;100.00;97834.75;5029542;28;20201;-80
2022/11/21 01:40:10;;;;;;;6.43;1.90;;;;;;;5.98;100.00;97843.66;5025916;28;20201;-80
2022/11/21 01:42:51;;;;;;;9.30;2.77;;;;;;;5.94;100.00;97847.44;5032632;28;20194;-80
2022/11/21 01:45:55;;;;;;;6.67;1.97;;;;;;;6.03;100.00;97845.06;5030742;28;20198;-81
2022/11/21 01:48:28;;;;;;;7.40;1.90;;;;;;;6.00;100.00;97842.63;5029665;28;20221;-80
2022/11/21 01:51:03;;;;;;;5.17;1.70;;;;;;;6.03;100.00;97836.31;5026096;28;20190;-81
2022/11/21 01:53:32;;;;;;;10.10;2.60;;;;;;;6.02;100.00;97840.75;5028794;28;20275;-80
2022/11/21 01:56:02;;;;;;;6.47;2.13;;;;;;;5.98;100.00;97841.03;5074779;28;20642;-80
2022/11/21 01:58:33;;;;;;;6.50;2.20;;;;;;;6.07;100.00;97850.09;5114857;28;20692;-81
2022/11/21 02:01:04;;;;;;;6.50;2.20;;;;;;;6.02;100.00;97847.78;5109474;28;20199;-82
2022/11/21 02:03:37;;;;;;;7.57;2.03;;;;;;;6.02;100.00;97847.78;5112612;27;20270;-81
2022/11/21 02:06:10;;;;;;;6.70;2.17;;;;;;;6.05;100.00;97857.25;5113479;28;20233;-81
2022/11/21 02:08:43;;;;;;;8.67;2.03;;;;;;;6.03;100.00;97852.09;5116683;27;20215;-81
2022/11/21 02:11:18;;;;;;;5.73;1.80;;;;;;;6.07;100.00;97853.56;5114420;28;20194;-81
2022/11/21 02:13:47;;;;;;;8.17;2.00;;;;;;;6.09;100.00;97870.09;5110830;28;20186;-81
2022/11/21 02:16:17;;;;;;;8.03;2.00;;;;;;;6.01;100.00;97878.47;5110635;28;20194;-81
2022/11/21 02:18:46;;;;;;;6.53;2.60;;;;;;;6.11;100.00;97885.75;5115706;27;20236;-81
2022/11/21 02:21:26;;;;;;;6.53;2.20;;;;;;;6.07;100.00;97892.16;5113210;28;20194;-81
2022/11/21 02:24:01;;;;;;;10.80;2.77;;;;;;;5.96;100.00;97885.81;5111926;28;20233;-81
2022/11/21 02:26:32;;;;;;;7.67;2.43;;;;;;;6.01;100.00;97886.38;5109718;28;20734;-81
2022/11/21 02:29:01;;;;;;;6.80;2.50;;;;;;;5.94;100.00;97889.50;5112329;28;20218;-81
2022/11/21 02:31:29;;;;;;;8.67;2.60;;;;;;;5.97;100.00;97898.00;5109133;28;20230;-81
2022/11/21 02:33:58;;;;;;;9.67;2.70;;;;;;;6.01;100.00;97904.75;5110950;27;20199;-81
2022/11/21 02:36:37;;;;;;;8.77;2.73;;;;;;;6.00;100.00;97910.13;5111373;28;20191;-81
2022/11/21 02:39:07;;;;;;;9.10;2.67;;;;;;;6.04;100.00;97908.97;5114035;28;20191;-81
2022/11/21 02:41:44;;;;;;;7.67;2.90;;;;;;;5.94;100.00;97915.78;5114144;28;20195;-81
2022/11/21 02:44:20;;;;;;;10.57;3.00;;;;;;;5.95;100.00;97922.72;5093416;28;20183;-81
2022/11/21 02:46:51;;;;;;;6.57;3.03;;;;;;;6.05;100.00;97915.91;5114305;27;20186;-81
2022/11/21 02:49:28;;;;;;;8.73;2.77;;;;;;;6.00;100.00;97920.63;5115163;27;20218;-82
2022/11/21 02:51:56;;;;;;;8.13;2.70;;;;;;;5.97;100.00;97920.81;5114751;28;20220;-81
2022/11/21 02:54:25;;;;;;;8.73;2.63;;;;;;;6.07;100.00;97921.06;5117709;28;20194;-81
2022/11/21 02:56:56;;;;;;;7.87;2.80;;;;;;;6.06;100.00;97919.38;5119017;28;20209;-81
2022/11/21 02:59:24;;;;;;;8.23;2.93;;;;;;;6.08;100.00;97923.63;5114012;28;20191;-80
2022/11/21 03:01:53;;;;;;;10.53;3.07;;;;;;;6.13;100.00;97929.38;5106750;28;20229;-81
2022/11/21 03:04:22;;;;;;;7.67;2.90;;;;;;;6.16;100.00;97928.34;5106595;28;20244;-81
2022/11/21 03:06:50;;;;;;;13.50;3.43;;;;;;;6.18;100.00;97937.84;5113385;28;20202;-81
2022/11/21 03:09:19;;;;;;;8.33;3.10;;;;;;;6.25;100.00;97936.47;5110952;28;20215;-81
2022/11/21 03:11:47;;;;;;;5.20;2.80;;;;;;;6.25;100.00;97940.88;5108739;28;20232;-81
2022/11/21 03:14:17;;;;;;;11.60;3.13;;;;;;;6.25;100.00;97936.47;5109030;28;20187;-81
2022/11/21 03:16:45;;;;;;;12.00;2.90;;;;;;;6.32;100.00;97940.38;5112223;28;20638;-81
2022/11/21 03:19:14;;;;;;;9.37;3.10;;;;;;;6.25;100.00;97935.63;5113690;28;20199;-81
2022/11/21 03:21:42;;;;;;;10.03;3.17;;;;;;;6.16;100.00;97946.75;5115340;28;20222;-80
2022/11/21 03:24:10;;;;;;;11.00;3.10;;;;;;;6.21;100.00;97955.19;5117501;28;20187;-81
2022/11/21 03:26:39;;;;;;;7.73;3.00;;;;;;;6.19;100.00;97943.94;5110331;28;20198;-81
2022/11/21 03:29:08;;;;;;;6.57;2.60;;;;;;;6.22;100.00;97939.31;5115053;28;20217;-81
2022/11/21 03:31:38;;;;;;;8.43;2.70;;;;;;;6.25;100.00;97943.50;5111097;28;20223;-81
2022/11/21 03:34:07;;;;;;;7.63;2.60;;;;;;;6.22;100.00;97957.72;5113325;28;20232;-81
2022/11/21 03:36:36;;;;;;;6.77;2.50;;;;;;;6.20;100.00;97954.34;5114692;28;20198;-81
2022/11/21 03:39:05;;;;;;;5.37;2.17;;;;;;;6.02;100.00;97961.63;5116115;28;20198;-81
2022/11/21 03:41:34;;;;;;;6.03;2.17;;;;;;;6.13;100.00;97954.84;5117024;28;20187;-82
2022/11/21 03:44:05;;;;;;;4.57;2.40;;;;;;;6.08;100.00;97959.53;5113382;28;20184;-82
2022/11/21 03:46:38;;;;;;;4.83;2.10;;;;;;;5.98;100.00;97954.03;5113134;28;20645;-81
2022/11/21 03:49:07;;;;;;;2.77;1.77;;;;;;;6.03;100.00;97946.72;5113965;28;20218;-81
2022/11/21 03:51:37;;;;;;;6.07;2.20;;;;;;;5.94;100.00;97950.78;5116145;27;20221;-81
2022/11/21 03:54:06;;;;;;;3.63;2.10;;;;;;;5.88;100.00;97948.50;5116942;27;20199;-80
2022/11/21 03:56:35;;;;;;;3.23;1.90;;;;;;;5.89;100.00;97944.13;5116874;28;20191;-82
2022/11/21 03:59:03;;;;;;;2.93;2.00;;;;;;;5.95;100.00;97946.34;5116871;28;20194;-82
2022/11/21 04:01:32;;;;;;;3.87;1.97;;;;;;;5.92;100.00;97941.31;5113228;28;20183;-81
2022/11/21 04:04:05;;;;;;;3.83;2.20;;;;;;;5.90;100.00;97946.66;5115889;28;20279;-82
2022/11/21 04:06:34;;;;;;;4.70;2.20;;;;;;;5.83;100.00;97952.38;5114933;28;20191;-81
2022/11/21 04:09:03;;;;;;;4.60;2.30;;;;;;;5.92;100.00;97954.44;5116953;28;20265;-81
2022/11/21 04:11:31;;;;;;;5.27;2.43;;;;;;;5.94;100.00;97955.19;5114609;28;20260;-81
2022/11/21 04:13:59;;;;;;;6.37;2.90;;;;;;;5.96;100.00;97955.91;5115828;28;20195;-81
2022/11/21 04:16:28;;;;;;;3.87;2.40;;;;;;;5.99;100.00;97958.38;5110863;28;20203;-82
2022/11/21 04:18:56;;;;;;;5.67;2.87;;;;;;;5.91;100.00;97960.66;5107459;28;20219;-82
2022/11/21 04:21:26;;;;;;;6.77;2.60;;;;;;;6.03;100.00;97965.09;5111216;28;20187;-82
2022/11/21 04:23:55;;;;;;;6.20;2.50;;;;;;;5.94;100.00;97965.69;5111968;28;20215;-81
2022/11/21 04:26:24;;;;;;;3.90;3.00;;;;;;;5.93;100.00;97958.75;5118724;27;20199;-81
2022/11/21 04:28:52;;;;;;;5.47;2.80;;;;;;;6.06;100.00;97961.44;5110436;28;20214;-81
2022/11/21 04:31:20;;;;;;;5.43;2.90;;;;;;;6.05;100.00;97968.47;5117806;27;20272;-81
2022/11/21 04:33:49;;;;;;;5.50;2.80;;;;;;;6.11;100.00;97968.09;5113193;28;20191;-81
2022/11/21 04:36:17;;;;;;;4.53;3.07;;;;;;;5.97;100.00;97974.22;5115139;28;20232;-82
2022/11/21 04:38:49;;;;;;;5.60;3.20;;;;;;;5.99;100.00;97974.16;5118508;27;20215;-81
2022/11/21 04:41:17;;;;;;;7.40;3.40;;;;;;;5.94;100.00;97963.06;5112326;28;20232;-81
2022/11/21 04:43:45;;;;;;;6.83;3.73;;;;;;;5.92;100.00;97967.59;5111727;28;20687;-81
2022/11/21 04:46:14;;;;;;;6.17;3.80;;;;;;;5.78;100.00;97972.84;5114122;28;20214;-81
2022/11/21 04:48:42;;;;;;;8.50;4.40;;;;;;;5.74;100.00;97973.03;5113757;28;20199;-81
2022/11/21 04:51:10;;;;;;;9.10;4.70;;;;;;;5.65;100.00;97968.38;5114476;28;20199;-82
2022/11/21 04:53:39;;;;;;;10.63;4.60;;;;;;;5.65;100.00;97976.25;5115728;28;20183;-81
2022/11/21 04:56:15;;;;;;;13.70;5.33;;;;;;;5.65;100.00;97980.66;5117122;27;20634;-80
2022/11/21 04:58:45;;;;;;;17.83;5.90;;;;;;;5.64;100.00;97977.19;5112752;28;20279;-81
2022/11/21 05:01:13;;;;;;;12.63;6.23;;;;;;;5.56;100.00;97982.06;5117818;27;20199;-81
2022/11/21 05:03:41;;;;;;;17.67;6.50;;;;;;;5.57;100.00;97978.50;5111273;28;20206;-81
2022/11/21 05:06:10;;;;;;;13.30;6.10;;;;;;;5.74;100.00;97982.69;5113914;28;20184;-80
2022/11/21 05:08:39;;;;;;;16.73;6.47;;;;;;;5.73;100.00;97983.66;5116239;27;20276;-81
2022/11/21 05:13:55;;;;;;;13.83;6.43;;;;;;;5.79;100.00;97990.28;5115476;28;20195;-82
2022/11/21 05:16:23;;;;;;;15.63;6.90;;;;;;;5.65;100.00;97985.91;5114649;27;20228;-81
2022/11/21 05:18:52;;;;;;;10.77;5.60;;;;;;;5.78;100.00;97994.69;5109542;28;20214;-81
2022/11/21 05:21:20;;;;;;;12.07;6.40;;;;;;;5.67;100.00;97978.78;5118104;27;20195;-81
2022/11/21 05:23:49;;;;;;;12.73;6.50;;;;;;;5.75;100.00;97989.66;5111978;28;20194;-81
2022/11/21 05:26:17;;;;;;;10.77;5.73;;;;;;;5.77;100.00;97986.91;5110792;28;20191;-81
2022/11/21 05:28:46;;;;;;;14.40;6.17;;;;;;;5.72;100.00;97990.69;5112365;28;20183;-80
2022/11/21 05:31:16;;;;;;;12.37;6.03;;;;;;;5.81;100.00;97994.53;5113139;28;20222;-81
2022/11/21 05:33:45;;;;;;;13.40;5.20;;;;;;;5.75;100.00;97989.66;5107404;28;20202;-80
2022/11/21 05:36:13;;;;;;;11.40;5.67;;;;;;;5.72;100.00;97982.81;5110600;28;20358;-81
2022/11/21 05:38:42;;;;;;;9.27;5.57;;;;;;;5.85;100.00;97985.50;5108457;28;20645;-81
2022/11/21 05:41:10;;;;;;;11.73;5.93;;;;;;;5.82;100.00;97984.84;5106048;28;20215;-81
2022/11/21 05:43:47;;;;;;;9.90;6.00;;;;;;;5.76;100.00;97978.19;5110373;28;20194;-81
2022/11/21 05:46:19;;;;;;;11.70;6.23;;;;;;;5.72;100.00;97982.81;5030864;28;20263;-81
2022/11/21 05:48:49;;;;;;;14.10;6.40;;;;;;;5.75;100.00;97985.22;5035550;28;20199;-81
2022/11/21 05:51:18;;;;;;;10.37;5.87;;;;;;;5.78;100.00;97986.81;5052259;28;20250;-81
2022/11/21 05:53:48;;;;;;;15.50;6.00;;;;;;;5.75;100.00;97987.00;5048265;28;20263;-81
2022/11/21 05:56:18;;;;;;;10.67;6.00;;;;;;;5.81;100.00;97997.16;5052156;28;20209;-81
2022/11/21 05:58:46;;;;;;;8.77;5.53;;;;;;;5.86;100.00;97984.53;5049356;28;20203;-81
2022/11/21 06:03:25;;;;;;;17.07;6.50;;;;;;;5.84;100.00;97989.06;5052034;28;20216;-81
2022/11/21 06:04:04;;;;;;;13.00;6.13;;;;;;;5.96;100.00;97987.47;5075406;28;20191;-82
2022/11/21 06:06:32;;;;;;;13.53;6.43;;;;;;;5.96;100.00;97985.66;5114880;28;20187;-81
2022/11/21 06:09:01;;;;;;;14.83;6.67;;;;;;;5.73;100.00;97992.38;5051274;28;20249;-81
2022/11/21 06:11:31;;;;;;;12.23;6.27;;;;;;;5.90;100.00;97990.47;5049600;28;20221;-81
2022/11/21 06:14:00;;;;;;;15.83;6.40;;;;;;;5.92;100.00;97993.88;5049635;28;20268;-80
2022/11/21 06:16:28;;;;;;;15.33;6.50;;;;;;;5.99;100.00;97997.78;5044264;28;20278;-81
2022/11/21 06:18:57;;;;;;;12.70;6.40;;;;;;;6.02;100.00;98000.22;5045472;28;20193;-82
2022/11/21 06:21:29;;;;;;;15.23;6.87;;;;;;;6.05;100.00;97999.16;5051569;28;20388;-81
2022/11/21 06:23:58;;;;;;;15.13;6.30;;;;;;;6.05;100.00;98000.00;5051572;28;20272;-80
2022/11/21 06:26:28;;;;;;;16.07;6.57;;;;;;;6.08;100.00;98006.84;5059486;28;20195;-81
2022/11/21 06:28:56;;;;;;;17.07;6.53;;;;;;;5.87;100.00;97993.25;5116628;27;20203;-81
2022/11/21 06:31:26;;;;;;;18.97;6.90;;;;;;;5.86;100.00;98004.72;5113648;28;20219;-81
2022/11/21 06:33:57;;;;;;;16.70;6.83;;;;;;;6.02;100.00;97998.44;5114301;27;20195;-81
2022/11/21 06:36:27;;;;;;;18.00;6.60;;;;;;;6.08;100.00;98001.59;5076591;28;20232;-81
2022/11/21 06:38:56;;;;;;;14.27;6.60;;;;;;;6.10;100.00;98007.63;5108726;28;20227;-81
2022/11/21 06:41:29;;;;;;;15.63;7.10;;;;;;;5.88;100.00;98010.72;5114304;28;20198;-81
2022/11/21 06:43:59;;;;;;;15.03;7.07;;;;;;;5.81;100.00;98010.28;5112103;28;20244;-81
2022/11/21 06:46:27;;;;;;;16.73;7.70;;;;;;;5.74;100.00;98001.09;5116611;27;20226;-80
2022/11/21 06:48:55;;;;;;;24.60;10.30;;;;;;;5.73;100.00;98017.81;5110772;28;20187;-81
2022/11/21 06:51:24;;;;;;;20.17;12.07;;;;;;;5.79;100.00;98020.06;5115494;27;20242;-81
2022/11/21 06:53:56;;;;;;;20.13;9.83;;;;;;;5.79;100.00;98022.69;5116299;27;20232;-81
2022/11/21 06:56:25;;;;;;;30.27;18.80;;;;;;;5.78;100.00;98020.97;5110918;28;20203;-81
2022/11/21 06:58:54;;;;;;;20.90;14.20;;;;;;;5.80;100.00;98028.78;5043813;28;20205;-81
2022/11/21 07:01:25;;;;;;;17.37;8.93;;;;;;;5.70;100.00;98033.75;4970221;28;20198;-80
2022/11/21 07:03:55;;;;;;;20.43;9.00;;;;;;;5.84;100.00;98044.22;4963488;28;20195;-81
2022/11/21 07:06:24;;;;;;;20.67;8.50;;;;;;;5.87;100.00;98033.53;4964954;28;20203;-81
2022/11/21 07:08:55;;;;;;;19.20;9.60;;;;;;;5.96;100.00;98040.00;4967995;28;20195;-81
2022/11/21 07:11:43;;;;;;;21.07;8.70;;;;;;;5.94;100.00;98042.75;4972302;28;20230;-81
2022/11/21 07:14:12;;;;;;;13.50;8.63;;;;;;;6.03;100.00;98041.31;4940957;28;20195;-81
2022/11/21 07:16:41;;;;;;;18.07;8.20;;;;;;;6.00;100.00;98047.63;4994861;28;20666;-81
2022/11/21 07:19:10;;;;;;;21.30;8.53;;;;;;;6.05;100.00;98057.00;5063770;28;20191;-81
2022/11/21 07:21:39;;;;;;;30.33;10.30;;;;;;;5.96;100.00;98048.75;5108472;28;20255;-81
2022/11/21 07:24:09;;;;;;;18.10;9.43;;;;;;;6.05;100.00;98049.94;5115674;27;20285;-81
2022/11/21 07:26:37;;;;;;;20.10;8.47;;;;;;;5.97;100.00;98050.44;5108938;28;20191;-81
2022/11/21 07:29:06;;;;;;;18.67;7.70;;;;;;;5.97;100.00;98050.44;5111398;28;20212;-81
2022/11/21 07:31:34;;;;;;;20.00;8.40;;;;;;;5.94;100.00;98049.78;5110703;28;20226;-81
2022/11/21 07:34:02;;;;;;;18.80;8.00;;;;;;;5.93;100.00;98045.47;5106777;28;20706;-81
2022/11/21 07:36:31;;;;;;;15.77;8.30;;;;;;;6.00;100.00;98049.41;5110563;28;20697;-81
2022/11/21 07:39:00;;;;;;;25.13;10.57;;;;;;;6.12;100.00;98046.00;5112540;28;20596;-81
2022/11/21 07:41:30;;;;;;;35.93;13.10;;;;;;;5.94;100.00;98045.38;5107474;28;20199;-81
2022/11/21 07:43:59;;;;;;;32.90;12.90;;;;;;;5.84;100.00;98051.28;5105355;28;20263;-81
2022/11/21 07:46:27;;;;;;;17.20;7.03;;;;;;;5.82;100.00;98050.53;5074339;28;20197;-82
2022/11/21 07:48:56;;;;;;;19.80;7.97;;;;;;;5.87;100.00;98057.16;5107126;28;20199;-81
2022/11/21 07:51:30;;;;;;;15.07;6.50;;;;;;;5.85;100.00;98061.69;5113595;28;20214;-81
2022/11/21 07:54:02;;;;;;;13.83;6.20;;;;;;;5.93;100.00;98058.63;5109015;28;20203;-82
2022/11/21 07:56:31;;;;;;;19.63;5.63;;;;;;;5.88;100.00;98063.25;5111992;28;20230;-81
2022/11/21 07:59:00;;;;;;;17.00;6.20;;;;;;;5.78;100.00;98070.03;5108383;28;20199;-82
2022/11/21 08:01:28;;;;;;;16.53;5.90;;;;;;;5.99;100.00;98064.34;5110425;28;20188;-81
2022/11/21 08:03:56;;;;;;;12.27;5.93;;;;;;;6.02;100.00;98061.50;5106282;28;20206;-81
2022/11/21 08:06:25;;;;;;;17.00;6.40;;;;;;;5.88;100.00;98061.47;5115609;28;20195;-81
2022/11/21 08:08:54;;;;;;;15.27;5.83;;;;;;;5.89;100.00;98068.47;5116889;28;20198;-81
2022/11/21 08:11:23;;;;;;;17.03;5.53;;;;;;;5.68;100.00;98059.25;5112652;28;20275;-81
2022/11/21 08:13:53;;;;;;;14.37;6.23;;;;;;;5.66;100.00;98059.34;5115650;27;20203;-81
2022/11/21 08:16:26;;;;;;;14.00;5.87;;;;;;;5.68;100.00;98069.75;5119018;27;20221;-81
2022/11/21 08:18:55;;;;;;;14.70;5.50;;;;;;;5.76;100.00;98062.25;5109736;28;20195;-80
2022/11/21 08:21:24;;;;;;;15.07;5.97;;;;;;;5.83;100.00;98052.22;5114105;28;20195;-81
2022/11/21 08:23:52;;;;;;;13.67;5.47;;;;;;;5.90;100.00;98046.53;5111253;28;20202;-81
2022/11/21 08:26:21;;;;;;;12.63;5.00;;;;;;;5.83;100.00;98044.34;5116922;28;20244;-81
2022/11/21 08:28:49;;;;;;;15.57;5.50;;;;;;;5.83;100.00;98052.22;5111485;28;20199;-80
2022/11/21 08:31:27;;;;;;;13.70;4.97;;;;;;;5.83;100.00;98055.69;5116282;28;20221;-80
2022/11/21 08:33:56;;;;;;;14.07;4.93;;;;;;;5.86;100.00;98055.47;5111195;28;20199;-81
2022/11/21 08:36:26;;;;;;;14.77;5.60;;;;;;;5.86;100.00;98050.22;5116304;27;20187;-81
2022/11/21 08:38:57;;;;;;;11.23;4.70;;;;;;;5.83;100.00;98053.06;5076459;28;20199;-80
2022/11/21 08:44:10;;;;;;;16.00;5.90;;;;;;;5.83;100.00;98055.69;5118449;27;20240;-81
2022/11/21 08:46:45;;;;;;;13.33;5.00;;;;;;;5.97;100.00;98058.31;5112635;28;20191;-81
2022/11/21 08:49:14;;;;;;;10.93;4.60;;;;;;;5.99;100.00;98051.19;5108995;28;20542;-81
2022/11/21 08:51:42;;;;;;;92.13;48.53;;;;;;;5.83;100.00;98058.31;5115808;27;20662;-81
2022/11/21 08:54:10;;;;;;;17.43;11.70;;;;;;;5.83;100.00;98055.69;5111182;28;20198;-81
2022/11/21 08:56:39;;;;;;;18.83;12.63;;;;;;;5.88;100.00;98050.97;5113721;28;20712;-80
2022/11/21 08:59:07;;;;;;;9.90;4.90;;;;;;;5.80;100.00;98047.16;5114825;28;20199;-80
2022/11/21 09:01:36;;;;;;;35.30;21.60;;;;;;;5.83;100.00;98039.09;5111115;28;20191;-81
2022/11/21 09:04:07;;;;;;;16.27;7.57;;;;;;;5.97;100.00;98036.44;5114380;27;20201;-81
2022/11/21 09:06:36;;;;;;;15.97;9.20;;;;;;;5.92;100.00;98042.00;5110134;28;20187;-81
2022/11/21 09:09:06;;;;;;;21.03;11.33;;;;;;;6.00;100.00;98036.28;5111258;28;20198;-80
2022/11/21 09:11:36;;;;;;;9.33;4.50;;;;;;;6.16;100.00;98049.25;5117055;27;20680;-80
2022/11/21 09:19:37;;;;;;;8.87;4.70;;;;;;;6.20;100.00;98024.47;5114126;28;20201;-81
2022/11/21 09:22:06;;;;;;;9.07;4.20;;;;;;;6.10;100.00;98026.00;5113310;28;20191;-81
2022/11/21 09:24:35;;;;;;;9.83;5.13;;;;;;;6.05;100.00;98026.28;5129230;28;20197;-81
2022/11/21 09:27:03;;;;;;;8.97;4.53;;;;;;;6.06;100.00;98025.34;5049284;28;20742;-80
2022/11/21 09:29:31;;;;;;;11.10;4.97;;;;;;;6.02;100.00;98034.38;5047980;28;20196;-81
2022/11/21 09:32:00;;;;;;;8.43;5.83;;;;;;;6.11;100.00;98022.44;5048788;28;20225;-81
2022/11/21 09:34:31;;;;;;;10.23;5.20;;;;;;;6.15;100.00;98027.38;5047298;28;20197;-81
2022/11/21 09:37:01;;;;;;;11.53;5.30;;;;;;;6.18;100.00;98036.88;5047319;28;20185;-81
2022/11/21 09:39:30;;;;;;;7.77;4.90;;;;;;;6.21;100.00;98031.41;5047252;28;20213;-81
2022/11/21 09:42:14;;;;;;;11.90;5.10;;;;;;;6.53;100.00;98037.22;5049890;28;20197;-81
2022/11/21 09:44:59;;;;;;;7.13;4.87;;;;;;;6.53;100.00;98035.41;5022508;28;20210;-81
2022/11/21 09:47:29;;;;;;;8.60;4.60;;;;;;;6.50;100.00;98037.41;5114983;27;20198;-80
2022/11/21 09:50:01;;;;;;;8.53;4.20;;;;;;;6.51;100.00;98044.38;5109465;28;20188;-80
2022/11/21 09:52:41;;;;;;;8.80;3.77;;;;;;;6.41;100.00;98048.53;5108485;28;20219;-80
2022/11/21 09:55:21;;;;;;;7.87;3.60;;;;;;;6.38;100.00;98039.06;5114491;28;20194;-80
2022/11/21 09:57:50;;;;;;;9.93;4.30;;;;;;;6.51;100.00;98033.84;5114718;28;20240;-81
2022/11/21 10:00:24;;;;;;;7.00;3.83;;;;;;;6.50;100.00;98032.16;5114009;28;20191;-80
2022/11/21 10:02:53;;;;;;;10.20;3.97;;;;;;;6.48;100.00;98028.78;5109823;28;20212;-80
2022/11/21 10:05:33;;;;;;;11.37;4.23;;;;;;;6.48;100.00;98029.63;5109190;28;20191;-81
2022/11/21 10:08:13;;;;;;;8.93;4.10;;;;;;;6.50;100.00;98019.84;5110536;28;20247;-80
2022/11/21 10:10:55;;;;;;;8.90;4.40;;;;;;;6.57;100.00;98015.88;5110835;28;20203;-80
2022/11/21 10:13:38;;;;;;;8.93;4.17;;;;;;;6.52;100.00;98006.59;5114789;28;20678;-80
2022/11/21 10:16:16;;;;;;;6.23;3.70;;;;;;;6.63;100.00;98006.72;5113097;27;20698;-80
2022/11/21 10:19:03;;;;;;;7.50;3.17;;;;;;;6.73;100.00;98002.53;5110094;28;20194;-80
2022/11/21 10:22:00;;;;;;;7.27;3.00;;;;;;;6.64;100.00;98003.13;5108700;28;20194;-80
2022/11/21 10:24:45;;;;;;;5.83;2.87;;;;;;;6.70;100.00;98001.91;5093015;28;20703;-80
2022/11/21 10:27:18;;;;;;;8.90;2.43;;;;;;;6.83;100.00;98000.97;5111094;28;20453;-81
2022/11/21 10:29:53;;;;;;;9.33;3.97;;;;;;;6.87;100.00;98001.63;5110770;28;20195;-81
2022/11/21 10:32:26;;;;;;;7.50;2.90;;;;;;;6.94;100.00;97996.75;5116163;27;20254;-80
2022/11/21 10:35:00;;;;;;;4.63;2.50;;;;;;;7.06;100.00;97995.94;5111830;28;20194;-81
2022/11/21 10:37:35;;;;;;;5.80;2.33;;;;;;;7.01;100.00;97988.34;5112738;28;20198;-80
2022/11/21 10:40:26;;;;;;;9.67;4.00;;;;;;;7.02;100.00;97987.41;5112993;28;20187;-81
2022/11/21 10:42:58;;;;;;;6.80;2.63;;;;;;;7.12;100.00;97977.91;5113703;28;20240;-80
2022/11/21 10:45:26;;;;;;;6.33;2.20;;;;;;;7.29;100.00;97976.75;5107795;28;20199;-80
2022/11/21 10:47:54;;;;;;;6.13;2.20;;;;;;;7.47;100.00;97975.47;5117155;27;20684;-80
2022/11/21 10:50:38;;;;;;;8.30;4.67;;;;;;;7.63;100.00;97963.84;5113747;28;20252;-81
2022/11/21 10:56:07;;;;;;;5.53;2.03;;;;;;;7.91;100.00;97960.94;5116154;27;20638;-80
2022/11/21 10:58:41;;;;;;;4.33;1.90;;;;;;;7.93;100.00;97945.00;5107021;28;20198;-81
2022/11/21 11:01:24;;;;;;;5.30;2.17;;;;;;;7.67;100.00;97946.88;5076702;28;20190;-80
2022/11/21 11:04:21;;;;;;;4.00;2.23;;;;;;;7.41;100.00;97930.28;5112669;28;20202;-80
2022/11/21 11:07:23;;;;;;;3.90;1.63;;;;;;;7.45;100.00;97926.47;5116146;27;20211;-80
2022/11/21 11:09:52;;;;;;;5.60;2.20;;;;;;;7.47;100.00;97919.31;5110556;28;20202;-81
2022/11/21 11:15:20;;;;;;;5.10;2.20;;;;;;;7.64;100.00;97920.75;5113326;28;20187;-80
2022/11/21 11:17:55;;;;;;;4.60;1.90;;;;;;;7.64;100.00;97913.69;5110780;28;20189;-80
2022/11/21 11:20:33;;;;;;;5.40;1.90;;;;;;;7.66;100.00;97898.59;5110699;28;20273;-80
2022/11/21 11:23:16;;;;;;;4.70;1.73;;;;;;;8.26;100.00;97897.66;5112080;28;20187;-81
2022/11/21 11:25:47;;;;;;;4.20;1.80;;;;;;;8.63;100.00;97884.34;5113453;28;20256;-81
2022/11/21 11:28:18;;;;;;;6.07;1.67;;;;;;;8.42;100.00;97863.09;5111481;28;20187;-81
2022/11/21 11:30:49;;;;;;;2.60;1.53;;;;;;;8.55;100.00;97849.78;5113378;28;20226;-81
2022/11/21 11:33:33;;;;;;;3.33;1.53;;;;;;;8.95;100.00;97842.25;5109515;28;20233;-80
2022/11/21 11:36:20;;;;;;;2.93;2.07;;;;;;;8.91;100.00;97834.72;5110627;28;20260;-81
2022/11/21 11:38:53;;;;;;;3.50;1.43;;;;;;;8.59;100.00;97825.72;5113823;28;20195;-81
2022/11/21 11:48:02;;;;;;;4.57;1.60;;;;;;;8.55;100.00;97807.56;5116652;28;20187;-81
2022/11/21 11:50:36;;;;;;;2.83;1.97;;;;;;;8.61;100.00;97804.47;5117341;28;20191;-80
2022/11/21 11:53:11;;;;;;;4.93;2.00;;;;;;;9.26;100.00;97792.28;5114446;28;20244;-80
2022/11/21 11:55:45;;;;;;;2.57;1.70;;;;;;;9.68;100.00;97795.88;5116257;28;20231;-81
2022/11/21 11:58:22;;;;;;;2.47;1.70;;;;;;;10.29;100.00;97791.63;5054060;28;20194;-80
2022/11/21 12:01:00;;;;;;;2.57;1.50;;;;;;;10.20;100.00;97786.25;5054339;28;20219;-81
2022/11/21 12:03:39;;;;;;;4.00;1.53;;;;;;;9.52;100.00;97779.59;5047415;28;20200;-80
2022/11/21 12:06:16;;;;;;;4.87;1.60;;;;;;;9.39;100.00;97782.41;5054468;28;20201;-80
2022/11/21 12:08:52;;;;;;;2.13;1.30;;;;;;;9.25;100.00;97782.66;5048527;28;20208;-81
2022/11/21 12:17:37;;;;;;;3.03;1.60;;;;;;;8.22;100.00;97769.63;5053893;28;20239;-80